Time;durP1;ratioP1;P1;durP2;ratioP2;P2;SDS_P1;SDS_P2;PMS_P1;PMS_P2;Temp;Humidity;BMP_temperature;BMP_pressure;BME280_temperature;BME280_humidity;BME280_pressure;Samples;Min_cycle;Max_cycle;Signal;HPM_P1;HPM_P2
2021/06/06 00:00:35;;;;;;;11.10;7.10;;;15.70;99.90;;;;;;4442353;32;20174;-82
2021/06/06 00:03:06;;;;;;;10.00;6.90;;;15.70;99.90;;;;;;4443150;32;20198;-82
2021/06/06 00:05:43;;;;;;;9.67;7.17;;;15.70;99.90;;;;;;4442119;32;20531;-82
2021/06/06 00:08:10;;;;;;;12.90;7.40;;;15.70;99.90;;;;;;4441775;32;20150;-82
2021/06/06 00:10:37;;;;;;;9.40;6.80;;;15.60;99.90;;;;;;4441054;32;20161;-82
2021/06/06 00:13:04;;;;;;;10.07;7.57;;;15.60;99.90;;;;;;4443331;32;20158;-82
2021/06/06 00:15:31;;;;;;;10.57;7.60;;;15.60;99.90;;;;;;4441838;32;20134;-81
2021/06/06 00:17:59;;;;;;;10.37;7.70;;;15.60;99.90;;;;;;4441723;32;20425;-82
2021/06/06 00:20:27;;;;;;;11.20;7.70;;;15.50;99.90;;;;;;4439979;32;20426;-82
2021/06/06 00:22:55;;;;;;;12.20;7.80;;;15.50;99.90;;;;;;4440941;32;20176;-82
2021/06/06 00:25:24;;;;;;;9.83;7.47;;;15.50;99.90;;;;;;4441447;32;20162;-82
2021/06/06 00:27:51;;;;;;;10.53;7.57;;;15.40;99.90;;;;;;4442867;32;20134;-82
2021/06/06 00:30:19;;;;;;;10.77;7.10;;;15.40;99.90;;;;;;4440795;32;20536;-82
2021/06/06 00:32:46;;;;;;;12.23;8.13;;;15.40;99.90;;;;;;4441754;32;20179;-82
2021/06/06 00:35:14;;;;;;;11.13;7.50;;;15.40;99.90;;;;;;4441298;32;20217;-82
2021/06/06 00:37:42;;;;;;;13.60;8.47;;;15.40;99.90;;;;;;4440254;32;20183;-82
2021/06/06 00:40:12;;;;;;;11.90;8.27;;;15.40;99.90;;;;;;4441061;32;20162;-82
2021/06/06 00:42:39;;;;;;;11.27;7.77;;;15.40;99.90;;;;;;4441150;32;20432;-82
2021/06/06 00:45:12;;;;;;;12.83;7.90;;;15.30;99.90;;;;;;4440921;32;20517;-82
2021/06/06 00:47:39;;;;;;;11.60;7.77;;;15.30;99.90;;;;;;4440998;32;20457;-82
2021/06/06 00:50:11;;;;;;;13.67;8.00;;;15.30;99.90;;;;;;4441172;32;20196;-82
2021/06/06 00:52:41;;;;;;;13.20;8.23;;;15.30;99.90;;;;;;4442702;32;20153;-82
2021/06/06 00:55:09;;;;;;;12.47;8.03;;;15.30;99.90;;;;;;4441203;32;20168;-82
2021/06/06 00:57:38;;;;;;;10.03;8.07;;;15.30;99.90;;;;;;4440327;32;20188;-82
2021/06/06 01:00:13;;;;;;;10.00;7.37;;;15.20;99.90;;;;;;4441124;32;20174;-82
2021/06/06 01:02:42;;;;;;;11.00;8.07;;;15.20;99.90;;;;;;4441206;32;20185;-82
2021/06/06 01:05:37;;;;;;;9.77;7.47;;;15.20;99.90;;;;;;4440680;32;20162;-82
2021/06/06 01:08:06;;;;;;;9.87;7.33;;;15.20;99.90;;;;;;4440818;32;20151;-82
2021/06/06 01:10:34;;;;;;;12.37;7.80;;;15.20;99.90;;;;;;4440748;32;20524;-82
2021/06/06 01:13:26;;;;;;;14.83;7.77;;;15.20;99.90;;;;;;4442226;32;20157;-82
2021/06/06 01:16:04;;;;;;;9.77;7.53;;;15.10;99.90;;;;;;4440989;32;20405;-82
2021/06/06 01:18:35;;;;;;;12.33;7.23;;;15.10;99.90;;;;;;4441383;32;20322;-82
2021/06/06 01:21:26;;;;;;;12.87;7.30;;;15.10;99.90;;;;;;4440917;32;20190;-81
2021/06/06 01:24:19;;;;;;;10.83;7.43;;;15.10;99.90;;;;;;4440567;32;20172;-81
2021/06/06 01:26:59;;;;;;;12.37;7.23;;;15.10;99.90;;;;;;4440608;32;20138;-82
2021/06/06 01:29:37;;;;;;;13.23;7.50;;;15.10;99.90;;;;;;4441526;32;20142;-82
2021/06/06 01:32:34;;;;;;;11.03;7.20;;;15.00;99.90;;;;;;4440678;32;20179;-82
2021/06/06 01:35:36;;;;;;;12.47;7.13;;;15.00;99.90;;;;;;4441877;32;20138;-82
2021/06/06 01:38:11;;;;;;;10.33;7.63;;;15.00;99.90;;;;;;4441490;32;20376;-81
2021/06/06 01:40:41;;;;;;;9.87;7.30;;;15.00;99.90;;;;;;4440522;32;20183;-82
2021/06/06 01:43:13;;;;;;;9.43;7.20;;;15.00;99.90;;;;;;4440675;32;20142;-81
2021/06/06 01:45:49;;;;;;;10.03;7.57;;;15.00;99.90;;;;;;4441737;32;20158;-81
2021/06/06 01:48:16;;;;;;;11.73;7.70;;;14.90;99.90;;;;;;4440123;32;20154;-81
2021/06/06 01:51:03;;;;;;;11.37;7.43;;;15.00;99.90;;;;;;4440150;32;20194;-81
2021/06/06 01:53:31;;;;;;;9.50;7.50;;;14.90;99.90;;;;;;4440122;32;20164;-83
2021/06/06 01:56:02;;;;;;;12.43;7.60;;;14.80;99.90;;;;;;4441530;32;20366;-83
2021/06/06 01:58:30;;;;;;;10.20;7.27;;;14.80;99.90;;;;;;4439966;32;20535;-83
2021/06/06 02:00:59;;;;;;;10.17;7.63;;;14.70;99.90;;;;;;4440073;32;20165;-82
2021/06/06 02:03:27;;;;;;;12.93;7.30;;;14.70;99.90;;;;;;4440507;32;20146;-82
2021/06/06 02:05:56;;;;;;;12.37;7.70;;;14.60;99.90;;;;;;4440145;32;20180;-82
2021/06/06 02:08:29;;;;;;;10.00;7.50;;;14.60;99.90;;;;;;4440947;32;20164;-81
2021/06/06 02:11:31;;;;;;;12.33;7.20;;;14.60;99.90;;;;;;4439994;32;20143;-81
2021/06/06 02:14:18;;;;;;;9.77;7.03;;;14.60;99.90;;;;;;4426635;32;20546;-81
2021/06/06 02:16:56;;;;;;;12.37;7.63;;;14.60;99.90;;;;;;4441627;32;20173;-81
2021/06/06 02:19:26;;;;;;;8.87;7.00;;;14.60;99.90;;;;;;4441673;32;20385;-82
2021/06/06 02:21:56;;;;;;;9.80;7.17;;;14.60;99.90;;;;;;4439989;32;20173;-81
2021/06/06 02:24:24;;;;;;;8.40;7.13;;;14.60;99.90;;;;;;4439722;32;20150;-82
2021/06/06 02:26:56;;;;;;;12.13;7.37;;;14.60;99.90;;;;;;4438880;32;20199;-82
2021/06/06 02:29:27;;;;;;;9.70;6.90;;;14.60;99.90;;;;;;4440416;32;20188;-83
2021/06/06 02:32:00;;;;;;;9.43;7.00;;;14.50;99.90;;;;;;4439791;32;20162;-82
2021/06/06 02:34:58;;;;;;;12.30;6.80;;;14.50;99.90;;;;;;4439523;32;20141;-82
2021/06/06 02:37:40;;;;;;;11.87;7.00;;;14.50;99.90;;;;;;4441530;32;20150;-81
2021/06/06 02:40:27;;;;;;;11.70;7.10;;;14.50;99.90;;;;;;4441284;32;20175;-81
2021/06/06 02:42:59;;;;;;;10.53;6.83;;;14.50;99.90;;;;;;4441180;32;20196;-81
2021/06/06 02:45:30;;;;;;;11.73;7.37;;;14.50;99.90;;;;;;4441341;32;20196;-81
2021/06/06 02:48:03;;;;;;;10.93;7.23;;;14.50;99.90;;;;;;4440312;32;20179;-83
2021/06/06 02:50:35;;;;;;;10.77;7.30;;;14.50;99.90;;;;;;4441401;32;20184;-83
2021/06/06 02:53:06;;;;;;;12.40;7.20;;;14.50;99.90;;;;;;4441258;32;20163;-83
2021/06/06 02:55:39;;;;;;;12.53;7.40;;;14.50;99.90;;;;;;4441342;32;20173;-83
2021/06/06 02:58:11;;;;;;;11.17;7.20;;;14.50;99.90;;;;;;4441019;32;20173;-83
2021/06/06 03:00:42;;;;;;;10.83;7.17;;;14.50;99.90;;;;;;4439562;32;20177;-83
2021/06/06 03:03:19;;;;;;;11.50;7.40;;;14.50;99.90;;;;;;4438279;32;20171;-83
2021/06/06 03:05:47;;;;;;;10.73;7.20;;;14.60;99.90;;;;;;4442156;32;20385;-83
2021/06/06 03:08:15;;;;;;;11.60;7.10;;;14.60;99.90;;;;;;4441976;32;20181;-83
2021/06/06 03:10:43;;;;;;;12.33;7.20;;;14.60;99.90;;;;;;4444027;32;20205;-83
2021/06/06 03:13:35;;;;;;;9.83;7.13;;;14.60;99.90;;;;;;4441731;32;20214;-82
2021/06/06 03:16:03;;;;;;;11.23;7.00;;;14.70;99.90;;;;;;4442740;32;20184;-82
2021/06/06 03:18:37;;;;;;;9.90;6.53;;;14.70;99.90;;;;;;4442177;32;20176;-83
2021/06/06 03:21:32;;;;;;;10.73;6.87;;;14.70;99.90;;;;;;4443238;32;20142;-82
2021/06/06 03:24:02;;;;;;;10.33;7.30;;;14.70;99.90;;;;;;4442538;32;20227;-83
2021/06/06 03:26:34;;;;;;;11.83;7.17;;;14.70;99.90;;;;;;4442337;32;20196;-83
2021/06/06 03:29:04;;;;;;;12.17;6.90;;;14.80;99.90;;;;;;4442526;32;20528;-83
2021/06/06 03:31:36;;;;;;;12.03;7.37;;;14.80;99.90;;;;;;4442521;32;20187;-83
2021/06/06 03:34:05;;;;;;;10.43;7.30;;;14.80;99.90;;;;;;4442924;32;20422;-83
2021/06/06 03:36:36;;;;;;;10.70;6.93;;;14.90;99.90;;;;;;4442152;32;20162;-83
2021/06/06 03:39:08;;;;;;;12.97;7.47;;;14.90;99.90;;;;;;4443599;32;20182;-83
2021/06/06 03:41:35;;;;;;;10.33;6.57;;;14.90;99.90;;;;;;4442348;32;20150;-83
2021/06/06 03:44:04;;;;;;;9.13;6.70;;;15.00;99.90;;;;;;4443689;32;20248;-82
2021/06/06 03:46:31;;;;;;;9.27;6.67;;;15.00;99.90;;;;;;4442009;32;20147;-83
2021/06/06 03:48:58;;;;;;;13.13;7.20;;;15.10;99.90;;;;;;4442331;32;20139;-83
2021/06/06 03:51:27;;;;;;;9.43;7.10;;;15.10;99.90;;;;;;4442714;32;20198;-82
2021/06/06 03:53:54;;;;;;;10.63;6.80;;;15.20;99.90;;;;;;4443226;32;20191;-83
2021/06/06 03:56:22;;;;;;;9.50;6.70;;;15.20;99.90;;;;;;4441867;32;20414;-83
2021/06/06 03:58:49;;;;;;;11.37;7.20;;;15.30;99.90;;;;;;4441878;32;20227;-83
2021/06/06 04:01:16;;;;;;;10.17;6.80;;;15.30;99.90;;;;;;4441289;32;20460;-83
2021/06/06 04:03:44;;;;;;;9.80;6.50;;;15.30;99.90;;;;;;4443465;32;20151;-83
2021/06/06 04:06:11;;;;;;;10.77;7.40;;;15.40;99.90;;;;;;4441960;32;20131;-83
2021/06/06 04:08:39;;;;;;;12.30;6.80;;;15.40;99.90;;;;;;4441886;32;20192;-82
2021/06/06 04:11:06;;;;;;;11.47;6.70;;;15.40;99.90;;;;;;4443319;32;20139;-82
2021/06/06 04:13:33;;;;;;;11.13;6.90;;;15.50;99.90;;;;;;4441609;32;20139;-82
2021/06/06 04:16:00;;;;;;;8.00;6.63;;;15.50;99.90;;;;;;4441436;32;20544;-82
2021/06/06 04:18:31;;;;;;;9.97;6.80;;;15.60;99.90;;;;;;4441704;32;20232;-80
2021/06/06 04:21:02;;;;;;;10.60;7.23;;;15.60;99.90;;;;;;4442934;32;20138;-81
2021/06/06 04:23:29;;;;;;;10.57;7.00;;;15.70;99.90;;;;;;4441411;32;20192;-82
2021/06/06 04:25:56;;;;;;;10.37;7.00;;;15.80;99.90;;;;;;4441240;32;20142;-82
2021/06/06 04:28:24;;;;;;;12.13;7.20;;;15.80;99.90;;;;;;4442881;32;20143;-81
2021/06/06 04:30:51;;;;;;;8.70;6.33;;;15.80;99.90;;;;;;4440262;32;20185;-82
2021/06/06 04:33:19;;;;;;;7.87;6.30;;;15.80;99.90;;;;;;4441934;32;20166;-81
2021/06/06 04:35:47;;;;;;;11.00;7.10;;;15.90;99.90;;;;;;4441690;32;20347;-83
2021/06/06 04:38:19;;;;;;;9.53;7.03;;;15.90;99.90;;;;;;4441582;32;20150;-82
2021/06/06 04:40:46;;;;;;;11.90;6.80;;;15.90;99.90;;;;;;4442762;32;20453;-83
2021/06/06 04:43:14;;;;;;;9.10;6.87;;;16.00;99.90;;;;;;4442407;32;20465;-83
2021/06/06 04:45:41;;;;;;;8.63;6.67;;;16.10;99.90;;;;;;4441120;32;20138;-83
2021/06/06 04:48:24;;;;;;;11.07;6.90;;;16.10;99.90;;;;;;4441056;32;20187;-83
2021/06/06 04:50:52;;;;;;;10.10;6.87;;;16.20;99.90;;;;;;4442759;32;20187;-83
2021/06/06 04:53:19;;;;;;;9.40;6.90;;;16.20;99.90;;;;;;4441062;32;20184;-83
2021/06/06 04:55:47;;;;;;;10.67;6.70;;;16.30;99.90;;;;;;4440922;32;20139;-83
2021/06/06 04:58:17;;;;;;;9.67;6.23;;;16.40;99.90;;;;;;4441012;32;20217;-82
2021/06/06 05:00:44;;;;;;;10.00;6.57;;;16.50;99.90;;;;;;4440850;32;20165;-83
2021/06/06 05:03:12;;;;;;;8.67;6.33;;;16.60;99.90;;;;;;4440855;32;20201;-82
2021/06/06 05:05:40;;;;;;;9.20;6.27;;;16.70;99.90;;;;;;4441014;32;20158;-82
2021/06/06 05:08:07;;;;;;;9.50;6.43;;;16.70;99.90;;;;;;4442255;32;20225;-82
2021/06/06 05:10:37;;;;;;;8.77;6.40;;;16.80;99.90;;;;;;4440755;32;20157;-82
2021/06/06 05:13:05;;;;;;;13.10;7.17;;;16.80;99.90;;;;;;4440810;32;20143;-82
2021/06/06 05:15:33;;;;;;;11.37;6.80;;;16.80;99.90;;;;;;4440706;32;20387;-83
2021/06/06 05:18:00;;;;;;;9.93;6.37;;;16.90;99.90;;;;;;4440161;32;20205;-82
2021/06/06 05:20:32;;;;;;;9.67;6.77;;;17.00;99.90;;;;;;4440506;32;20381;-82
2021/06/06 05:22:59;;;;;;;10.07;6.50;;;17.10;99.90;;;;;;4440859;32;20457;-81
2021/06/06 05:25:27;;;;;;;7.93;5.83;;;17.20;99.90;;;;;;4440433;32;20532;-82
2021/06/06 05:27:54;;;;;;;10.30;6.40;;;17.20;99.90;;;;;;4440203;32;20161;-81
2021/06/06 05:30:25;;;;;;;10.70;6.70;;;17.40;99.90;;;;;;4440431;32;20201;-81
2021/06/06 05:32:52;;;;;;;9.43;6.30;;;17.40;99.90;;;;;;4442530;32;20219;-81
2021/06/06 05:35:21;;;;;;;9.93;6.43;;;17.50;99.90;;;;;;4440377;32;20169;-81
2021/06/06 05:37:48;;;;;;;8.37;6.37;;;17.60;99.90;;;;;;4441865;32;20139;-81
2021/06/06 05:40:16;;;;;;;9.13;7.00;;;17.60;99.90;;;;;;4440481;32;20188;-82
2021/06/06 05:42:44;;;;;;;11.00;6.33;;;17.70;99.90;;;;;;4440351;32;20202;-81
2021/06/06 05:45:12;;;;;;;9.97;6.27;;;17.80;99.90;;;;;;4440149;32;20473;-81
2021/06/06 05:47:40;;;;;;;9.57;6.53;;;17.90;99.90;;;;;;4440107;32;20146;-81
2021/06/06 05:50:08;;;;;;;11.53;6.63;;;18.00;99.90;;;;;;4442160;32;20512;-82
2021/06/06 05:52:35;;;;;;;11.00;6.20;;;18.10;99.90;;;;;;4439637;32;20139;-82
2021/06/06 05:55:04;;;;;;;10.77;6.80;;;18.20;99.90;;;;;;4439772;32;20139;-82
2021/06/06 05:57:31;;;;;;;8.80;6.53;;;18.20;99.90;;;;;;4440198;32;20217;-80
2021/06/06 05:59:58;;;;;;;8.87;6.30;;;18.30;99.90;;;;;;4442063;32;20371;-80
2021/06/06 06:02:25;;;;;;;13.87;6.80;;;18.40;99.90;;;;;;4440192;32;20465;-80
2021/06/06 06:04:52;;;;;;;11.07;6.73;;;18.40;99.90;;;;;;4439891;32;20146;-81
2021/06/06 06:07:19;;;;;;;11.30;6.50;;;18.40;99.90;;;;;;4441197;32;20131;-81
2021/06/06 06:09:46;;;;;;;9.47;6.30;;;18.50;99.90;;;;;;4439865;32;20146;-80
2021/06/06 06:12:13;;;;;;;10.13;6.70;;;18.70;99.90;;;;;;4439811;32;20451;-81
2021/06/06 06:14:40;;;;;;;10.97;6.00;;;18.80;99.90;;;;;;4439888;32;20170;-81
2021/06/06 06:17:07;;;;;;;8.50;6.20;;;18.90;99.90;;;;;;4439833;32;20154;-80
2021/06/06 06:19:34;;;;;;;7.63;5.40;;;19.00;99.90;;;;;;4439766;32;20134;-81
2021/06/06 06:22:01;;;;;;;8.00;5.80;;;19.10;99.90;;;;;;4439817;32;20457;-81
2021/06/06 06:24:29;;;;;;;9.67;6.50;;;19.10;99.90;;;;;;4439605;32;20409;-81
2021/06/06 06:26:56;;;;;;;9.83;6.27;;;19.30;99.90;;;;;;4441263;32;20161;-81
2021/06/06 06:29:24;;;;;;;7.73;5.70;;;19.40;99.90;;;;;;4439829;32;20213;-80
2021/06/06 06:31:52;;;;;;;8.13;5.53;;;19.50;99.90;;;;;;4441170;32;20167;-80
2021/06/06 06:34:20;;;;;;;8.57;5.33;;;19.60;99.90;;;;;;4439028;32;20165;-81
2021/06/06 06:36:47;;;;;;;8.33;5.83;;;19.80;99.90;;;;;;4439855;32;20183;-82
2021/06/06 06:39:15;;;;;;;10.50;6.20;;;19.80;99.90;;;;;;4442260;32;20161;-81
2021/06/06 06:41:42;;;;;;;8.90;5.60;;;19.90;99.90;;;;;;4443330;32;20135;-82
2021/06/06 06:44:09;;;;;;;8.37;5.53;;;20.00;99.90;;;;;;4443105;32;20142;-82
2021/06/06 06:46:36;;;;;;;9.07;5.60;;;20.00;99.90;;;;;;4440790;32;20161;-81
2021/06/06 06:49:03;;;;;;;8.37;5.47;;;20.10;99.90;;;;;;4444299;32;20147;-81
2021/06/06 06:51:30;;;;;;;7.87;5.57;;;20.20;99.90;;;;;;4442632;32;20393;-82
2021/06/06 06:53:57;;;;;;;6.67;5.27;;;20.30;99.90;;;;;;4443464;32;20142;-81
2021/06/06 06:56:26;;;;;;;9.27;5.73;;;20.20;99.90;;;;;;4442596;32;20138;-81
2021/06/06 06:58:54;;;;;;;8.77;6.03;;;20.20;99.90;;;;;;4442570;32;20154;-81
2021/06/06 07:01:21;;;;;;;8.63;6.03;;;20.30;99.90;;;;;;4444060;32;20170;-81
2021/06/06 07:03:48;;;;;;;7.37;5.50;;;20.40;99.90;;;;;;4442547;32;20295;-80
2021/06/06 07:06:15;;;;;;;11.03;5.97;;;20.50;99.90;;;;;;4442352;32;20143;-80
2021/06/06 07:08:43;;;;;;;8.07;5.40;;;20.40;99.90;;;;;;4443527;32;20198;-80
2021/06/06 07:11:15;;;;;;;8.57;5.40;;;20.40;99.90;;;;;;4443869;32;20200;-80
2021/06/06 07:13:43;;;;;;;11.40;5.70;;;20.60;99.90;;;;;;4443958;32;20143;-80
2021/06/06 07:16:11;;;;;;;10.07;5.27;;;20.70;99.90;;;;;;4443994;32;20192;-80
2021/06/06 07:18:39;;;;;;;8.03;5.13;;;20.80;99.90;;;;;;4443914;32;20134;-80
2021/06/06 07:21:10;;;;;;;7.57;5.37;;;21.00;99.90;;;;;;4442198;32;20158;-82
2021/06/06 07:23:37;;;;;;;8.13;5.17;;;21.00;99.90;;;;;;4443855;32;20177;-81
2021/06/06 07:26:12;;;;;;;9.37;5.07;;;21.20;99.90;;;;;;4442209;32;20464;-81
2021/06/06 07:28:39;;;;;;;7.30;5.17;;;21.40;99.90;;;;;;4442340;32;20141;-81
2021/06/06 07:31:07;;;;;;;6.90;5.77;;;21.40;99.90;;;;;;4443010;32;20146;-81
2021/06/06 07:33:38;;;;;;;6.87;4.73;;;21.40;99.90;;;;;;4442013;32;20154;-81
2021/06/06 07:36:06;;;;;;;7.53;4.70;;;21.30;99.90;;;;;;4443548;32;20169;-81
2021/06/06 07:38:33;;;;;;;8.67;4.90;;;21.50;99.90;;;;;;4441706;32;20150;-81
2021/06/06 07:41:03;;;;;;;9.07;4.90;;;21.60;99.90;;;;;;4442425;32;20143;-80
2021/06/06 07:43:33;;;;;;;9.47;4.80;;;21.60;99.90;;;;;;4442242;32;20179;-80
2021/06/06 07:46:02;;;;;;;8.63;4.90;;;21.70;99.90;;;;;;4441560;32;20204;-81
2021/06/06 07:48:29;;;;;;;6.70;4.90;;;21.80;99.90;;;;;;4441610;32;20202;-81
2021/06/06 07:50:56;;;;;;;6.20;4.30;;;21.80;99.90;;;;;;4442994;32;20181;-81
2021/06/06 07:53:24;;;;;;;7.17;4.40;;;22.00;99.90;;;;;;4441549;32;20138;-82
2021/06/06 07:55:54;;;;;;;6.53;4.83;;;22.30;99.90;;;;;;4442960;32;20192;-81
2021/06/06 07:58:27;;;;;;;9.43;4.53;;;22.30;99.90;;;;;;4441325;32;20194;-81
2021/06/06 08:00:54;;;;;;;6.27;4.07;;;22.40;99.40;;;;;;4441466;32;20170;-82
2021/06/06 08:03:24;;;;;;;7.60;4.57;;;22.40;99.30;;;;;;4442552;32;20234;-82
2021/06/06 08:05:51;;;;;;;9.37;5.43;;;22.50;98.70;;;;;;4441500;32;20449;-81
2021/06/06 08:08:18;;;;;;;7.87;4.40;;;22.40;99.00;;;;;;4440808;32;20416;-81
2021/06/06 08:10:48;;;;;;;7.63;4.30;;;22.50;97.80;;;;;;4442532;32;20162;-81
2021/06/06 08:13:15;;;;;;;6.40;4.03;;;22.60;96.00;;;;;;4442737;32;20201;-81
2021/06/06 08:15:43;;;;;;;4.57;4.00;;;22.70;96.10;;;;;;4442882;32;20358;-80
2021/06/06 08:18:12;;;;;;;7.13;4.10;;;22.80;95.50;;;;;;4441271;32;20210;-81
2021/06/06 08:20:52;;;;;;;5.73;3.97;;;23.00;94.80;;;;;;4441193;32;20184;-80
2021/06/06 08:23:21;;;;;;;8.57;4.20;;;23.60;93.00;;;;;;4443310;32;20187;-80
2021/06/06 08:25:49;;;;;;;6.70;4.18;;;24.50;91.20;;;;;;4442887;32;20234;-81
2021/06/06 08:28:18;;;;;;;5.93;4.40;;;25.40;88.80;;;;;;4441140;32;20145;-80
2021/06/06 08:30:49;;;;;;;7.45;4.12;;;26.10;79.30;;;;;;4440416;32;20165;-82
2021/06/06 08:33:17;;;;;;;7.22;4.03;;;26.70;77.70;;;;;;4442045;32;20203;-83
2021/06/06 08:35:57;;;;;;;7.40;3.80;;;26.90;70.90;;;;;;4441445;32;20225;-83
2021/06/06 08:38:26;;;;;;;5.85;3.90;;;26.70;68.00;;;;;;4442550;32;20161;-82
2021/06/06 08:41:01;;;;;;;6.53;3.60;;;27.00;65.90;;;;;;4441003;32;20155;-83
2021/06/06 08:43:50;;;;;;;4.87;3.53;;;26.40;64.10;;;;;;4441973;32;20545;-82
2021/06/06 08:46:19;;;;;;;5.15;3.70;;;26.90;63.80;;;;;;4441013;32;20150;-81
2021/06/06 08:48:46;;;;;;;4.30;3.62;;;27.20;62.90;;;;;;4441495;32;20181;-81
2021/06/06 08:51:49;;;;;;;7.37;3.72;;;27.80;60.60;;;;;;4440645;32;20505;-81
2021/06/06 08:54:25;;;;;;;7.18;3.70;;;28.10;58.90;;;;;;4442152;32;20187;-81
2021/06/06 08:56:57;;;;;;;8.70;4.65;;;28.40;59.10;;;;;;4440916;32;20165;-82
2021/06/06 08:59:31;;;;;;;5.62;3.40;;;28.30;57.70;;;;;;4440674;32;20174;-81
2021/06/06 09:02:06;;;;;;;6.37;3.53;;;28.30;57.90;;;;;;4440341;32;20461;-81
2021/06/06 09:04:35;;;;;;;7.15;3.12;;;28.50;58.10;;;;;;4441262;32;20495;-81
2021/06/06 09:07:07;;;;;;;5.22;3.20;;;28.50;56.10;;;;;;4440374;32;20142;-81
2021/06/06 09:09:45;;;;;;;4.90;2.90;;;28.70;56.40;;;;;;4441091;32;20158;-81
2021/06/06 09:12:18;;;;;;;5.70;3.17;;;28.80;54.80;;;;;;4442219;32;20134;-81
2021/06/06 09:14:47;;;;;;;4.35;3.45;;;29.00;55.10;;;;;;4440446;32;20142;-80
2021/06/06 09:17:19;;;;;;;5.12;3.30;;;29.00;57.10;;;;;;4440937;32;20215;-80
2021/06/06 09:19:56;;;;;;;12.23;4.57;;;28.90;54.60;;;;;;4441616;32;20369;-80
2021/06/06 09:22:41;;;;;;;10.23;4.15;;;29.30;54.20;;;;;;4441520;32;20154;-80
2021/06/06 09:25:16;;;;;;;10.20;4.40;;;28.90;52.50;;;;;;4442048;32;20400;-82
2021/06/06 09:27:44;;;;;;;6.72;2.95;;;28.60;54.60;;;;;;4440880;32;20145;-82
2021/06/06 09:30:18;;;;;;;6.45;3.00;;;28.90;54.50;;;;;;4440490;32;20142;-81
2021/06/06 09:32:45;;;;;;;6.25;3.47;;;29.10;53.20;;;;;;4441903;32;20165;-82
2021/06/06 09:35:23;;;;;;;5.60;3.20;;;29.00;52.10;;;;;;4440823;32;20131;-81
2021/06/06 09:38:02;;;;;;;4.55;2.92;;;29.30;53.50;;;;;;4440229;32;20461;-82
2021/06/06 09:40:44;;;;;;;6.05;2.90;;;29.60;52.50;;;;;;4440633;32;20150;-81
2021/06/06 09:43:30;;;;;;;4.70;2.80;;;29.80;49.60;;;;;;4439728;32;20189;-82
2021/06/06 09:46:05;;;;;;;4.82;2.95;;;30.10;49.70;;;;;;4441767;32;20158;-81
2021/06/06 09:48:39;;;;;;;5.85;3.00;;;30.20;50.30;;;;;;4439668;32;20225;-81
2021/06/06 09:51:17;;;;;;;7.03;2.90;;;30.10;49.10;;;;;;4441013;32;20185;-81
2021/06/06 09:53:44;;;;;;;4.32;2.67;;;30.20;49.40;;;;;;4440129;32;20177;-82
2021/06/06 09:56:23;;;;;;;5.05;3.03;;;30.00;49.60;;;;;;4438723;32;20186;-82
2021/06/06 09:59:05;;;;;;;4.53;3.30;;;30.20;49.80;;;;;;4438315;32;20453;-81
2021/06/06 10:01:36;;;;;;;6.32;2.92;;;30.60;48.20;;;;;;4440404;32;20584;-83
2021/06/06 10:04:09;;;;;;;4.72;3.22;;;30.90;48.40;;;;;;4439596;32;20202;-82
2021/06/06 10:06:42;;;;;;;5.12;2.90;;;31.00;48.10;;;;;;4440127;32;20327;-81
2021/06/06 10:09:13;;;;;;;6.45;2.78;;;31.00;48.00;;;;;;4439841;32;20203;-82
2021/06/06 10:12:06;;;;;;;5.40;2.25;;;31.30;46.60;;;;;;4439956;32;20138;-83
2021/06/06 10:14:42;;;;;;;5.22;2.50;;;31.70;45.00;;;;;;4439899;32;20515;-82
2021/06/06 10:17:12;;;;;;;3.45;2.65;;;32.00;44.20;;;;;;4440065;32;20165;-83
2021/06/06 10:19:50;;;;;;;7.22;2.83;;;31.40;45.60;;;;;;4438610;32;20150;-82
2021/06/06 10:22:26;;;;;;;4.18;2.80;;;31.50;46.00;;;;;;4440005;32;20149;-83
2021/06/06 10:25:00;;;;;;;5.95;3.00;;;31.90;45.20;;;;;;4439795;32;20222;-84
2021/06/06 10:27:37;;;;;;;3.65;2.80;;;31.40;43.80;;;;;;4440662;32;20146;-83
2021/06/06 10:30:36;;;;;;;3.80;2.37;;;31.50;44.80;;;;;;4440227;32;20419;-82
2021/06/06 10:33:25;;;;;;;3.10;2.47;;;31.90;42.80;;;;;;4436804;32;20192;-83
2021/06/06 10:35:52;;;;;;;5.82;2.55;;;32.60;43.30;;;;;;4439712;32;20191;-84
2021/06/06 10:38:21;;;;;;;4.72;2.40;;;33.20;43.70;;;;;;4439585;32;20131;-83
2021/06/06 10:40:50;;;;;;;4.78;2.50;;;33.30;41.50;;;;;;4438946;32;20443;-82
2021/06/06 10:43:29;;;;;;;4.25;2.83;;;33.10;38.70;;;;;;4441099;32;20134;-82
2021/06/06 10:46:04;;;;;;;5.12;2.58;;;33.30;38.50;;;;;;4439491;32;20142;-83
2021/06/06 10:48:46;;;;;;;2.70;2.05;;;33.50;38.50;;;;;;4439385;32;20474;-82
2021/06/06 10:51:33;;;;;;;3.50;2.08;;;33.60;37.30;;;;;;4439066;32;20394;-82
2021/06/06 10:54:07;;;;;;;3.05;2.45;;;34.10;37.30;;;;;;4440845;32;20210;-83
2021/06/06 10:56:46;;;;;;;3.85;2.42;;;34.50;37.40;;;;;;4440256;32;20143;-82
2021/06/06 10:59:13;;;;;;;4.43;2.42;;;34.30;37.90;;;;;;4439543;32;20185;-82
2021/06/06 11:01:43;;;;;;;4.70;2.62;;;34.10;37.00;;;;;;4440916;32;20340;-82
2021/06/06 11:04:33;;;;;;;4.45;2.20;;;34.40;37.20;;;;;;4440102;32;20207;-82
2021/06/06 11:07:27;;;;;;;2.80;2.50;;;34.60;37.00;;;;;;4439366;32;20146;-82
2021/06/06 11:10:27;;;;;;;2.92;2.55;;;34.50;36.70;;;;;;4439787;32;20138;-82
2021/06/06 11:12:56;;;;;;;4.47;2.50;;;34.30;37.30;;;;;;4439413;32;20161;-82
2021/06/06 11:15:34;;;;;;;9.30;2.92;;;34.60;36.90;;;;;;4439628;32;20503;-82
2021/06/06 11:18:17;;;;;;;3.97;2.58;;;35.00;36.20;;;;;;4440936;32;20142;-82
2021/06/06 11:21:10;;;;;;;3.15;2.37;;;34.90;37.40;;;;;;4439407;32;20143;-83
2021/06/06 11:23:46;;;;;;;3.75;2.40;;;35.00;38.50;;;;;;4437301;32;20212;-81
2021/06/06 11:26:34;;;;;;;2.60;2.28;;;35.40;36.40;;;;;;4441549;32;20196;-81
2021/06/06 11:29:21;;;;;;;4.40;2.35;;;35.00;34.70;;;;;;4442159;32;20165;-81
2021/06/06 11:32:00;;;;;;;5.87;2.20;;;34.90;36.20;;;;;;4443652;32;20154;-81
2021/06/06 11:34:34;;;;;;;5.40;2.30;;;34.80;35.50;;;;;;4441655;32;20188;-81
2021/06/06 11:37:08;;;;;;;3.78;2.30;;;34.30;35.00;;;;;;4442401;32;20489;-82
2021/06/06 11:39:42;;;;;;;5.22;2.08;;;34.70;34.90;;;;;;4443144;32;20469;-82
2021/06/06 11:42:38;;;;;;;3.08;2.28;;;35.10;34.50;;;;;;4442878;32;20162;-81
2021/06/06 11:45:17;;;;;;;2.75;1.90;;;34.60;33.20;;;;;;4439875;32;20576;-82
2021/06/06 11:47:56;;;;;;;3.42;2.20;;;34.10;34.70;;;;;;4443063;32;20150;-82
2021/06/06 11:50:28;;;;;;;5.40;2.40;;;34.30;36.30;;;;;;4443458;32;20166;-81
2021/06/06 11:53:03;;;;;;;4.65;2.53;;;34.50;36.60;;;;;;4442273;32;20413;-82
2021/06/06 11:55:38;;;;;;;2.92;2.35;;;34.30;36.80;;;;;;4441874;32;20142;-81
2021/06/06 11:58:24;;;;;;;5.80;2.70;;;34.80;36.70;;;;;;4442253;32;20229;-82
2021/06/06 12:00:53;;;;;;;3.30;2.30;;;32.80;36.10;;;;;;4441650;32;20155;-82
2021/06/06 12:03:23;;;;;;;5.53;2.70;;;32.70;38.70;;;;;;4441382;32;20166;-82
2021/06/06 12:05:53;;;;;;;4.28;2.58;;;33.30;37.60;;;;;;4442173;32;20486;-80
2021/06/06 12:08:33;;;;;;;3.22;2.30;;;34.30;37.90;;;;;;4441638;32;20487;-80
2021/06/06 12:11:20;;;;;;;4.57;2.37;;;34.90;36.30;;;;;;4441595;32;20143;-82
2021/06/06 12:14:13;;;;;;;5.40;2.50;;;35.10;34.60;;;;;;4441784;32;20143;-82
2021/06/06 12:17:20;;;;;;;3.72;2.70;;;35.00;33.00;;;;;;4379027;32;20159;-82
2021/06/06 12:19:54;;;;;;;4.32;2.30;;;35.50;32.90;;;;;;4305120;33;20157;-81
2021/06/06 12:22:29;;;;;;;2.60;1.98;;;36.00;32.60;;;;;;4305084;33;20161;-81
2021/06/06 12:25:16;;;;;;;6.00;2.42;;;36.60;33.00;;;;;;4304958;33;20475;-81
2021/06/06 12:27:45;;;;;;;3.60;2.40;;;36.60;31.40;;;;;;4305119;33;20175;-81
2021/06/06 12:30:15;;;;;;;3.65;2.00;;;35.60;33.60;;;;;;4306438;33;20256;-80
2021/06/06 12:32:50;;;;;;;3.58;2.30;;;34.20;33.50;;;;;;4304820;33;20367;-81
2021/06/06 12:35:21;;;;;;;2.97;1.95;;;33.50;34.40;;;;;;4304671;33;20200;-81
2021/06/06 12:37:52;;;;;;;2.37;2.15;;;32.60;35.10;;;;;;4303937;33;20150;-81
2021/06/06 12:40:22;;;;;;;5.80;2.17;;;31.80;36.50;;;;;;4304371;33;20165;-81
2021/06/06 12:42:55;;;;;;;3.00;2.40;;;31.20;37.80;;;;;;4304644;33;20146;-81
2021/06/06 12:45:24;;;;;;;6.07;2.25;;;31.40;38.10;;;;;;4305237;33;20268;-81
2021/06/06 12:48:24;;;;;;;3.75;2.40;;;31.70;38.00;;;;;;4304690;33;20161;-83
2021/06/06 12:50:53;;;;;;;3.72;2.22;;;31.80;37.50;;;;;;4305942;33;20587;-81
2021/06/06 12:53:43;;;;;;;3.42;2.25;;;32.30;37.40;;;;;;4329223;32;20173;-82
2021/06/06 12:56:12;;;;;;;3.47;2.20;;;32.40;36.00;;;;;;4411923;32;20154;-81
2021/06/06 12:58:41;;;;;;;2.78;2.28;;;32.60;35.30;;;;;;4441432;32;20154;-81
2021/06/06 13:01:21;;;;;;;4.43;2.15;;;33.40;36.30;;;;;;4440812;32;20194;-81
2021/06/06 13:03:49;;;;;;;4.20;2.40;;;33.80;35.60;;;;;;4439856;32;20155;-80
2021/06/06 13:06:18;;;;;;;3.97;2.22;;;33.50;35.00;;;;;;4440744;32;20143;-83
2021/06/06 13:08:46;;;;;;;4.72;2.58;;;33.10;37.00;;;;;;4440810;32;20189;-81
2021/06/06 13:11:21;;;;;;;5.32;2.72;;;33.60;38.30;;;;;;4440165;32;20219;-80